createdAt,value
2023-01-29T00:01:54.656Z,-3.31
2023-01-29T00:04:21.075Z,-3.29
2023-01-29T00:06:47.511Z,-3.32
2023-01-29T00:09:14.530Z,-3.31
2023-01-29T00:11:41.055Z,-3.35
2023-01-29T00:14:07.958Z,-3.29
2023-01-29T00:16:34.367Z,-3.31
2023-01-29T00:19:02.299Z,-3.30
2023-01-29T00:21:30.998Z,-3.26
2023-01-29T00:23:57.983Z,-3.27
2023-01-29T00:26:24.586Z,-3.35
2023-01-29T00:28:51.098Z,-3.31
2023-01-29T00:31:22.555Z,-3.25
2023-01-29T00:33:49.433Z,-3.36
2023-01-29T00:36:18.016Z,-3.37
2023-01-29T00:38:44.574Z,-3.35
2023-01-29T00:41:34.652Z,-3.38
2023-01-29T00:44:20.423Z,-3.43
2023-01-29T00:46:46.868Z,-3.35
2023-01-29T00:49:13.455Z,-3.51
2023-01-29T00:51:39.930Z,-3.45
2023-01-29T00:54:09.662Z,-3.48
2023-01-29T00:56:37.303Z,-3.45
2023-01-29T00:59:04.446Z,-3.45
2023-01-29T01:01:49.792Z,-3.44
2023-01-29T01:04:16.208Z,-3.46
2023-01-29T01:06:43.146Z,-3.46
2023-01-29T01:09:29.162Z,-3.49
2023-01-29T01:11:55.642Z,-3.54
2023-01-29T01:14:22.038Z,-3.50
2023-01-29T01:16:49.081Z,-3.48
2023-01-29T01:19:18.257Z,-3.54
2023-01-29T01:21:46.970Z,-3.54
2023-01-29T01:24:13.476Z,-3.55
2023-01-29T01:26:39.934Z,-3.50
2023-01-29T01:29:06.588Z,-3.60
2023-01-29T01:31:33.053Z,-3.60
2023-01-29T01:33:59.449Z,-3.62
2023-01-29T01:36:25.905Z,-3.63
2023-01-29T01:38:52.434Z,-3.60
2023-01-29T01:41:21.783Z,-3.61
2023-01-29T01:43:58.550Z,-3.61
2023-01-29T01:46:28.724Z,-3.61
2023-01-29T01:49:02.193Z,-3.60
2023-01-29T01:51:32.638Z,-3.64
2023-01-29T01:54:06.474Z,-3.61
2023-01-29T01:56:44.401Z,-3.60
2023-01-29T01:59:13.202Z,-3.68
2023-01-29T02:01:43.446Z,-3.72
2023-01-29T02:04:41.114Z,-3.67
2023-01-29T02:07:29.836Z,-3.67
2023-01-29T02:10:16.820Z,-3.68
2023-01-29T02:12:45.359Z,-3.65
2023-01-29T02:15:13.610Z,-3.69
2023-01-29T02:17:40.206Z,-3.73
2023-01-29T02:20:18.644Z,-3.69
2023-01-29T02:22:55.250Z,-3.75
2023-01-29T02:25:59.225Z,-3.78
2023-01-29T02:28:36.657Z,-3.77
2023-01-29T02:31:12.511Z,-3.72
2023-01-29T02:34:01.116Z,-3.70
2023-01-29T02:36:35.808Z,-3.75
2023-01-29T02:39:25.525Z,-3.79
2023-01-29T02:42:03.085Z,-3.75
2023-01-29T02:44:32.330Z,-3.71
2023-01-29T02:47:12.471Z,-3.78
2023-01-29T02:50:07.293Z,-3.72
2023-01-29T02:52:43.174Z,-3.69
2023-01-29T02:55:18.274Z,-3.63
2023-01-29T02:57:46.489Z,-3.59
2023-01-29T03:00:18.562Z,-3.57
2023-01-29T03:02:52.305Z,-3.73
2023-01-29T03:05:28.530Z,-3.72
2023-01-29T03:08:02.738Z,-3.68
2023-01-29T03:10:38.537Z,-3.72
2023-01-29T03:13:18.002Z,-3.73
2023-01-29T03:15:51.173Z,-3.72
2023-01-29T03:18:31.708Z,-3.85
2023-01-29T03:21:04.004Z,-3.89
2023-01-29T03:23:53.598Z,-3.80
2023-01-29T03:26:40.956Z,-3.86
2023-01-29T03:29:28.310Z,-3.79
2023-01-29T03:32:08.771Z,-3.86
2023-01-29T03:34:42.026Z,-3.83
2023-01-29T03:37:16.149Z,-3.81
2023-01-29T03:39:42.650Z,-3.80
2023-01-29T03:42:32.101Z,-3.89
2023-01-29T03:45:05.328Z,-3.83
2023-01-29T03:47:40.431Z,-3.87
2023-01-29T03:50:29.755Z,-3.89
2023-01-29T03:53:08.362Z,-3.86
2023-01-29T03:55:44.826Z,-3.88
2023-01-29T03:58:33.867Z,-3.92
2023-01-29T04:01:05.005Z,-3.91
2023-01-29T04:03:38.105Z,-3.98
2023-01-29T04:06:11.242Z,-3.94
2023-01-29T04:09:01.766Z,-3.94
2023-01-29T04:11:29.298Z,-3.94
2023-01-29T04:13:57.334Z,-3.99
2023-01-29T04:16:31.848Z,-3.96
2023-01-29T04:18:59.412Z,-3.97
2023-01-29T04:21:27.013Z,-3.96
2023-01-29T04:23:54.218Z,-3.98
2023-01-29T04:26:50.718Z,-4.04
2023-01-29T04:29:40.462Z,-3.95
2023-01-29T04:32:31.769Z,-3.89
2023-01-29T04:35:08.870Z,-4.10
2023-01-29T04:37:50.475Z,-4.15
2023-01-29T04:40:39.278Z,-4.00
2023-01-29T04:43:19.782Z,-3.85
2023-01-29T04:46:05.031Z,-3.81
2023-01-29T04:49:06.558Z,-3.73
2023-01-29T04:51:47.382Z,-3.92
2023-01-29T04:54:27.077Z,-3.83
2023-01-29T04:57:01.724Z,-3.91
2023-01-29T04:59:45.688Z,-3.89
2023-01-29T05:02:13.352Z,-3.83
2023-01-29T05:04:41.736Z,-3.88
2023-01-29T05:07:12.396Z,-3.88
2023-01-29T05:09:42.067Z,-3.85
2023-01-29T05:12:11.660Z,-3.84
2023-01-29T05:14:41.352Z,-3.82
2023-01-29T05:17:14.589Z,-3.76
2023-01-29T05:19:41.176Z,-3.76
2023-01-29T05:22:10.853Z,-3.75
2023-01-29T05:24:37.507Z,-3.81
2023-01-29T05:27:22.638Z,-3.80
2023-01-29T05:29:49.199Z,-3.81
2023-01-29T05:32:16.430Z,-3.95
2023-01-29T05:34:43.016Z,-3.91
2023-01-29T05:37:10.647Z,-3.81
2023-01-29T05:39:37.019Z,-3.75
2023-01-29T05:42:03.481Z,-3.68
2023-01-29T05:44:29.879Z,-3.63
2023-01-29T05:46:56.461Z,-3.60
2023-01-29T05:49:22.866Z,-3.50
2023-01-29T05:51:49.319Z,-3.37
2023-01-29T05:54:15.747Z,-3.24
2023-01-29T05:56:42.099Z,-3.16
2023-01-29T05:59:08.735Z,-3.05
2023-01-29T06:01:35.131Z,-2.97
2023-01-29T06:04:01.717Z,-2.93
2023-01-29T06:06:28.114Z,-2.83
2023-01-29T06:08:55.968Z,-2.79
2023-01-29T06:11:22.657Z,-2.71
2023-01-29T06:13:49.122Z,-2.68
2023-01-29T06:16:15.790Z,-2.61
2023-01-29T06:18:42.642Z,-2.64
2023-01-29T06:21:11.727Z,-2.55
2023-01-29T06:23:38.497Z,-2.48
2023-01-29T06:26:11.414Z,-2.47
2023-01-29T06:28:38.023Z,-2.45
2023-01-29T06:33:53.245Z,-2.35
2023-01-29T06:36:19.630Z,-2.33
2023-01-29T06:38:47.129Z,-2.32
2023-01-29T06:41:17.688Z,-2.28
2023-01-29T06:43:45.027Z,-2.24
2023-01-29T06:46:11.600Z,-2.27
2023-01-29T06:48:37.969Z,-2.25
2023-01-29T06:51:06.091Z,-2.22
2023-01-29T06:53:33.696Z,-2.23
2023-01-29T06:56:00.174Z,-2.24
2023-01-29T06:58:26.694Z,-2.24
2023-01-29T07:00:53.285Z,-2.26
2023-01-29T07:03:21.051Z,-2.20
2023-01-29T07:05:52.533Z,-2.22
2023-01-29T07:08:19.448Z,-2.23
2023-01-29T07:10:45.907Z,-2.30
2023-01-29T07:13:12.317Z,-2.28
2023-01-29T07:15:38.689Z,-2.27
2023-01-29T07:18:11.853Z,-2.19
2023-01-29T07:20:40.520Z,-2.20
2023-01-29T07:23:08.768Z,-2.18
2023-01-29T07:25:35.177Z,-2.12
2023-01-29T07:28:01.815Z,-2.14
2023-01-29T07:30:28.531Z,-2.10
2023-01-29T07:32:55.084Z,-2.06
2023-01-29T07:35:21.936Z,-2.03
2023-01-29T07:37:51.389Z,-2.08
2023-01-29T07:40:18.499Z,-2.06
2023-01-29T07:42:45.482Z,-2.07
2023-01-29T07:45:12.179Z,-2.00
2023-01-29T07:47:38.662Z,-1.98
2023-01-29T07:50:05.777Z,-2.00
2023-01-29T07:52:33.646Z,-1.95
2023-01-29T07:55:00.050Z,-1.97
2023-01-29T07:57:26.450Z,-1.96
2023-01-29T07:59:52.780Z,-1.98
2023-01-29T08:02:19.206Z,-1.97
2023-01-29T08:04:45.631Z,-1.94
2023-01-29T08:07:12.066Z,-1.87
2023-01-29T08:09:38.439Z,-1.97
2023-01-29T08:12:04.991Z,-1.93
2023-01-29T08:14:31.467Z,-1.86
2023-01-29T08:16:57.942Z,-1.84
2023-01-29T08:19:24.348Z,-1.83
2023-01-29T08:21:50.811Z,-1.88
2023-01-29T08:24:17.325Z,-1.86
2023-01-29T08:26:43.776Z,-1.80
2023-01-29T08:29:11.563Z,-1.74
2023-01-29T08:31:38.076Z,-1.82
2023-01-29T08:34:04.562Z,-1.78
2023-01-29T08:36:31.038Z,-1.81
2023-01-29T08:38:57.474Z,-1.77
2023-01-29T08:41:23.852Z,-1.75
2023-01-29T08:43:50.286Z,-1.70
2023-01-29T08:46:16.706Z,-1.80
2023-01-29T08:48:43.206Z,-1.67
2023-01-29T08:51:09.713Z,-1.63
2023-01-29T08:53:36.055Z,-1.62
2023-01-29T08:56:02.584Z,-1.64
2023-01-29T08:58:29.014Z,-1.62
2023-01-29T09:00:55.407Z,-1.58
2023-01-29T09:03:21.879Z,-1.55
2023-01-29T09:05:48.482Z,-1.50
2023-01-29T09:08:15.474Z,-1.44
2023-01-29T09:10:41.875Z,-1.51
2023-01-29T09:13:09.281Z,-1.45
2023-01-29T09:15:35.653Z,-1.50
2023-01-29T09:18:05.606Z,-1.49
2023-01-29T09:20:32.673Z,-1.42
2023-01-29T09:23:03.306Z,-1.55
2023-01-29T09:25:29.658Z,-1.48
2023-01-29T09:27:56.023Z,-1.43
2023-01-29T09:30:22.398Z,-1.42
2023-01-29T09:32:53.511Z,-1.43
2023-01-29T09:35:22.724Z,-1.22
2023-01-29T09:37:49.995Z,-1.31
2023-01-29T09:40:40.871Z,-1.23
2023-01-29T09:43:18.182Z,-1.06
2023-01-29T09:45:55.034Z,-1.24
2023-01-29T09:48:25.237Z,-1.26
2023-01-29T09:50:55.143Z,-1.26
2023-01-29T09:53:29.443Z,-1.10
2023-01-29T09:56:18.004Z,-0.90
2023-01-29T09:58:44.577Z,-0.82
2023-01-29T10:01:23.993Z,-0.72
2023-01-29T10:04:21.251Z,-0.67
2023-01-29T10:07:22.509Z,-0.60
2023-01-29T10:10:23.762Z,-0.57
2023-01-29T10:13:14.372Z,-0.51
2023-01-29T10:15:55.179Z,-0.38
2023-01-29T10:18:27.343Z,-0.35
2023-01-29T10:21:02.152Z,-0.35
2023-01-29T10:23:34.566Z,-0.37
2023-01-29T10:26:01.623Z,-0.18
2023-01-29T10:28:28.040Z,-0.26
2023-01-29T10:30:59.853Z,-0.41
2023-01-29T10:33:48.741Z,-0.35
2023-01-29T10:36:28.656Z,-0.22
2023-01-29T10:38:56.032Z,-0.08
2023-01-29T10:42:05.443Z,-0.22
2023-01-29T10:44:44.231Z,-0.40
2023-01-29T10:47:38.242Z,-0.23
2023-01-29T10:50:13.426Z,0.11
2023-01-29T10:52:45.737Z,0.21
2023-01-29T10:55:15.464Z,0.35
2023-01-29T10:57:51.089Z,0.75
2023-01-29T11:00:17.802Z,0.88
2023-01-29T11:02:48.220Z,0.98
2023-01-29T11:05:20.660Z,0.95
2023-01-29T11:07:49.393Z,0.56
2023-01-29T11:10:21.596Z,0.40
2023-01-29T11:12:48.073Z,0.32
2023-01-29T11:15:30.588Z,0.41
2023-01-29T11:18:14.106Z,0.43
2023-01-29T11:20:43.103Z,0.44
2023-01-29T11:23:42.004Z,0.46
2023-01-29T11:26:12.718Z,0.34
2023-01-29T11:28:40.458Z,0.17
2023-01-29T11:31:21.813Z,0.35
2023-01-29T11:33:50.391Z,0.14
2023-01-29T11:36:32.905Z,0.24
2023-01-29T11:39:08.045Z,0.17
2023-01-29T11:41:42.919Z,0.23
2023-01-29T11:44:41.080Z,0.27
2023-01-29T11:47:16.514Z,0.27
2023-01-29T11:49:49.592Z,0.20
2023-01-29T11:52:19.235Z,0.19
2023-01-29T11:54:51.958Z,0.34
2023-01-29T11:57:33.992Z,0.45
2023-01-29T12:00:07.776Z,0.30
2023-01-29T12:02:43.047Z,0.45
2023-01-29T12:05:22.112Z,0.54
2023-01-29T12:07:52.705Z,0.57
2023-01-29T12:10:30.627Z,0.49
2023-01-29T12:13:23.164Z,0.44
2023-01-29T12:15:49.801Z,0.31
2023-01-29T12:18:28.004Z,0.24
2023-01-29T12:21:03.775Z,0.26
2023-01-29T12:23:41.456Z,0.41
2023-01-29T12:26:15.911Z,0.44
2023-01-29T12:29:01.027Z,0.55
2023-01-29T12:31:53.426Z,0.50
2023-01-29T12:34:43.451Z,0.44
2023-01-29T12:37:40.901Z,0.45
2023-01-29T12:40:17.017Z,0.35
2023-01-29T12:42:49.657Z,0.44
2023-01-29T12:45:22.639Z,0.44
2023-01-29T12:47:56.114Z,0.55
2023-01-29T12:50:33.254Z,0.54
2023-01-29T12:53:05.144Z,0.61
2023-01-29T12:55:42.950Z,0.71
2023-01-29T12:58:20.067Z,0.75
2023-01-29T13:00:50.752Z,0.58
2023-01-29T13:03:53.022Z,0.45
2023-01-29T13:06:27.964Z,0.48
2023-01-29T13:08:58.782Z,0.43
2023-01-29T13:11:47.957Z,0.53
2023-01-29T13:14:25.179Z,0.52
2023-01-29T13:17:01.293Z,0.63
2023-01-29T13:19:33.500Z,0.65
2023-01-29T13:22:05.336Z,0.74
2023-01-29T13:24:38.806Z,0.76
2023-01-29T13:27:06.233Z,0.73
2023-01-29T13:29:33.287Z,0.74
2023-01-29T13:32:02.649Z,0.89
2023-01-29T13:34:32.803Z,0.86
2023-01-29T13:37:12.278Z,0.84
2023-01-29T13:39:46.397Z,0.89
2023-01-29T13:42:37.551Z,0.94
2023-01-29T13:45:07.093Z,1.02
2023-01-29T13:47:37.439Z,1.01
2023-01-29T13:50:24.284Z,1.02
2023-01-29T13:52:57.688Z,1.00
2023-01-29T13:55:40.098Z,1.10
2023-01-29T13:58:08.812Z,1.06
2023-01-29T14:00:35.146Z,0.96
2023-01-29T14:03:01.492Z,0.97
2023-01-29T14:05:31.042Z,1.02
2023-01-29T14:07:59.408Z,1.07
2023-01-29T14:10:29.837Z,1.02
2023-01-29T14:13:11.468Z,1.06
2023-01-29T14:15:41.848Z,1.00
2023-01-29T14:18:08.207Z,1.05
2023-01-29T14:20:45.919Z,1.11
2023-01-29T14:23:35.911Z,1.09
2023-01-29T14:26:05.320Z,1.17
2023-01-29T14:28:34.291Z,1.18
2023-01-29T14:31:01.288Z,1.12
2023-01-29T14:33:36.749Z,1.13
2023-01-29T14:36:11.315Z,1.15
2023-01-29T14:38:39.310Z,1.19
2023-01-29T14:41:29.582Z,1.21
2023-01-29T14:44:37.802Z,1.20
2023-01-29T14:47:04.874Z,1.26
2023-01-29T14:49:57.748Z,1.18
2023-01-29T14:52:33.148Z,1.22
2023-01-29T14:55:02.662Z,1.24
2023-01-29T14:57:30.588Z,1.27
2023-01-29T15:00:01.616Z,1.28
2023-01-29T15:02:37.025Z,1.26
2023-01-29T15:05:10.659Z,1.30
2023-01-29T15:07:51.731Z,1.26
2023-01-29T15:10:38.058Z,1.27
2023-01-29T15:13:32.819Z,1.25
2023-01-29T15:16:17.586Z,1.26
2023-01-29T15:18:44.175Z,1.25
2023-01-29T15:21:13.217Z,1.25
2023-01-29T15:23:40.816Z,1.28
2023-01-29T15:26:11.682Z,1.28
2023-01-29T15:28:39.206Z,1.31
2023-01-29T15:31:11.888Z,1.31
2023-01-29T15:33:41.059Z,1.28
2023-01-29T15:36:11.808Z,1.26
2023-01-29T15:38:38.231Z,1.28
2023-01-29T15:41:20.584Z,1.27
2023-01-29T15:43:56.533Z,1.28
2023-01-29T15:46:28.194Z,1.32
2023-01-29T15:48:57.141Z,1.34
2023-01-29T15:51:27.936Z,1.39
2023-01-29T15:54:00.599Z,1.41
2023-01-29T15:56:36.930Z,1.41
2023-01-29T15:59:09.758Z,1.42
2023-01-29T16:01:36.412Z,1.47
2023-01-29T16:04:03.830Z,1.48
2023-01-29T16:06:36.995Z,1.54
2023-01-29T16:09:05.142Z,1.52
2023-01-29T16:11:33.189Z,1.54
2023-01-29T16:14:01.219Z,1.55
2023-01-29T16:16:28.358Z,1.55
2023-01-29T16:19:00.351Z,1.60
2023-01-29T16:21:37.806Z,1.59
2023-01-29T16:24:13.870Z,1.62
2023-01-29T16:26:45.263Z,1.61
2023-01-29T16:29:16.975Z,1.62
2023-01-29T16:31:45.748Z,1.65
2023-01-29T16:34:25.781Z,1.68
2023-01-29T16:36:54.396Z,1.66
2023-01-29T16:39:24.064Z,1.65
2023-01-29T16:42:21.484Z,1.66
2023-01-29T16:44:52.213Z,1.70
2023-01-29T16:47:33.693Z,1.67
2023-01-29T16:50:20.278Z,1.72
2023-01-29T16:53:10.746Z,1.71
2023-01-29T16:55:41.035Z,1.72
2023-01-29T16:58:20.052Z,1.77
2023-01-29T17:00:52.669Z,1.80
2023-01-29T17:03:20.075Z,1.78
2023-01-29T17:05:47.271Z,1.80
2023-01-29T17:08:30.385Z,1.77
2023-01-29T17:10:56.930Z,1.75
2023-01-29T17:13:38.472Z,1.77
2023-01-29T17:16:20.114Z,1.77
2023-01-29T17:18:46.533Z,1.76
2023-01-29T17:21:12.878Z,1.74
2023-01-29T17:23:39.761Z,1.76
2023-01-29T17:26:13.318Z,1.71
2023-01-29T17:28:40.942Z,1.73
2023-01-29T17:31:07.903Z,1.73
2023-01-29T17:33:43.261Z,1.75
2023-01-29T17:36:15.340Z,1.75
2023-01-29T17:38:42.303Z,1.75
2023-01-29T17:41:15.862Z,1.77
2023-01-29T17:43:44.086Z,1.76
2023-01-29T17:46:13.486Z,1.77
2023-01-29T17:48:40.343Z,1.80
2023-01-29T17:51:12.550Z,1.81
2023-01-29T17:53:47.338Z,1.76
2023-01-29T17:56:21.097Z,1.79
2023-01-29T17:58:47.443Z,1.80
2023-01-29T18:01:13.911Z,1.82
2023-01-29T18:03:40.318Z,1.78
2023-01-29T18:06:09.035Z,1.78
2023-01-29T18:08:37.932Z,1.81
2023-01-29T18:11:04.607Z,1.79
2023-01-29T18:13:31.215Z,1.82
2023-01-29T18:15:57.677Z,1.78
2023-01-29T18:18:24.413Z,1.84
2023-01-29T18:20:51.071Z,1.77
2023-01-29T18:23:17.867Z,1.77
2023-01-29T18:25:44.783Z,1.78
2023-01-29T18:28:17.141Z,1.82
2023-01-29T18:30:46.910Z,1.78
2023-01-29T18:33:14.301Z,1.81
2023-01-29T18:35:40.755Z,1.88
2023-01-29T18:38:07.415Z,1.88
2023-01-29T18:40:33.776Z,1.83
2023-01-29T18:43:00.824Z,1.83
2023-01-29T18:45:28.470Z,1.83
2023-01-29T18:47:55.615Z,1.81
2023-01-29T18:50:26.142Z,1.82
2023-01-29T18:52:53.786Z,1.83
2023-01-29T18:55:20.789Z,1.84
2023-01-29T18:58:25.238Z,1.83
2023-01-29T19:00:33.865Z,1.82
2023-01-29T19:03:00.735Z,1.80
2023-01-29T19:05:27.136Z,1.81
2023-01-29T19:07:53.574Z,1.83
2023-01-29T19:10:19.936Z,1.84
2023-01-29T19:12:46.432Z,1.83
2023-01-29T19:15:12.834Z,1.85
2023-01-29T19:17:39.304Z,1.83
2023-01-29T19:20:06.203Z,1.83
2023-01-29T19:22:32.608Z,1.78
2023-01-29T19:24:59.088Z,1.81
2023-01-29T19:27:30.151Z,1.78
2023-01-29T19:29:58.054Z,1.76
2023-01-29T19:32:24.514Z,1.80
2023-01-29T19:34:51.467Z,1.81
2023-01-29T19:37:17.851Z,1.81
2023-01-29T19:39:44.183Z,1.79
2023-01-29T19:42:10.648Z,1.80
2023-01-29T19:44:38.931Z,1.85
2023-01-29T19:47:05.688Z,1.83
2023-01-29T19:49:33.939Z,1.80
2023-01-29T19:52:01.364Z,1.81
2023-01-29T19:54:28.156Z,1.83
2023-01-29T19:56:54.970Z,1.86
2023-01-29T19:59:21.444Z,1.86
2023-01-29T20:01:47.914Z,1.83
2023-01-29T20:04:14.287Z,1.83
2023-01-29T20:06:40.738Z,1.84
2023-01-29T20:09:07.297Z,1.89
2023-01-29T20:11:33.846Z,1.85
2023-01-29T20:14:00.247Z,1.83
2023-01-29T20:16:26.835Z,1.79
2023-01-29T20:18:53.236Z,1.86
2023-01-29T20:21:21.872Z,1.78
2023-01-29T20:23:50.102Z,1.80
2023-01-29T20:26:17.386Z,1.83
2023-01-29T20:28:46.359Z,1.83
2023-01-29T20:31:12.909Z,1.79
2023-01-29T20:33:40.282Z,1.82
2023-01-29T20:36:09.915Z,1.81
2023-01-29T20:38:36.504Z,1.80
2023-01-29T20:41:17.284Z,1.81
2023-01-29T20:43:45.133Z,1.84
2023-01-29T20:46:11.990Z,1.85
2023-01-29T20:48:38.573Z,1.86
2023-01-29T20:51:09.206Z,1.84
2023-01-29T20:53:36.872Z,1.85
2023-01-29T20:56:04.483Z,1.89
2023-01-29T20:58:31.267Z,1.90
2023-01-29T21:00:57.894Z,1.93
2023-01-29T21:03:24.253Z,1.93
2023-01-29T21:05:51.558Z,2.00
2023-01-29T21:08:17.975Z,1.97
2023-01-29T21:10:45.326Z,1.99
2023-01-29T21:13:12.154Z,2.05
2023-01-29T21:15:38.630Z,2.11
2023-01-29T21:18:06.573Z,2.11
2023-01-29T21:20:33.010Z,2.14
2023-01-29T21:22:59.444Z,2.15
2023-01-29T21:25:25.835Z,2.19
2023-01-29T21:27:52.200Z,2.23
2023-01-29T21:30:19.149Z,2.26
2023-01-29T21:32:46.047Z,2.24
2023-01-29T21:35:12.430Z,2.23
2023-01-29T21:37:38.854Z,2.24
2023-01-29T21:40:06.334Z,2.30
2023-01-29T21:42:51.070Z,2.36
2023-01-29T21:45:18.251Z,2.33
2023-01-29T21:47:44.876Z,2.41
2023-01-29T21:50:11.292Z,2.39
2023-01-29T21:52:38.091Z,2.46
2023-01-29T21:55:05.655Z,2.41
2023-01-29T21:57:32.048Z,2.39
2023-01-29T21:59:59.363Z,2.43
2023-01-29T22:02:27.632Z,2.43
2023-01-29T22:05:05.334Z,2.48
2023-01-29T22:07:42.714Z,2.50
2023-01-29T22:10:10.186Z,2.54
2023-01-29T22:12:36.568Z,2.54
2023-01-29T22:15:03.431Z,2.54
2023-01-29T22:17:29.923Z,2.55
2023-01-29T22:19:56.313Z,2.63
2023-01-29T22:22:22.854Z,2.60
2023-01-29T22:24:50.743Z,2.66
2023-01-29T22:27:17.145Z,2.72
2023-01-29T22:29:43.855Z,2.70
2023-01-29T22:32:11.313Z,2.71
2023-01-29T22:34:37.716Z,2.69
2023-01-29T22:37:04.182Z,2.71
2023-01-29T22:39:30.582Z,2.68
2023-01-29T22:41:56.972Z,2.69
2023-01-29T22:44:23.399Z,2.71
2023-01-29T22:46:50.417Z,2.69
2023-01-29T22:49:17.276Z,2.69
2023-01-29T22:51:43.648Z,2.72
2023-01-29T22:54:11.507Z,2.71
2023-01-29T22:56:38.028Z,2.70
2023-01-29T22:59:04.476Z,2.74
2023-01-29T23:01:31.887Z,2.71
2023-01-29T23:03:58.334Z,2.71
2023-01-29T23:06:24.886Z,2.69
2023-01-29T23:08:51.354Z,2.70
2023-01-29T23:11:20.464Z,2.72
2023-01-29T23:13:48.097Z,2.78
2023-01-29T23:16:16.423Z,2.70
2023-01-29T23:18:43.708Z,2.69
2023-01-29T23:21:11.027Z,2.67
2023-01-29T23:23:38.539Z,2.68
2023-01-29T23:26:25.452Z,2.72
2023-01-29T23:28:52.080Z,2.73
2023-01-29T23:31:18.565Z,2.72
2023-01-29T23:33:45.329Z,2.75
2023-01-29T23:36:11.882Z,2.72
2023-01-29T23:38:38.278Z,2.75
2023-01-29T23:41:04.780Z,2.74
2023-01-29T23:43:31.213Z,2.79
2023-01-29T23:45:57.867Z,2.80
2023-01-29T23:48:24.441Z,2.81
2023-01-29T23:50:51.255Z,2.80
2023-01-29T23:53:18.167Z,2.81
2023-01-29T23:56:01.797Z,2.87
2023-01-29T23:58:29.088Z,2.87
